Time;durP1;ratioP1;P1;durP2;ratioP2;P2;SDS_P1;SDS_P2;PMS_P1;PMS_P2;Temp;Humidity;BMP_temperature;BMP_pressure;BME280_temperature;BME280_humidity;BME280_pressure;Samples;Min_cycle;Max_cycle;Signal;HPM_P1;HPM_P2
2021/11/26 00:02:21;;;;;;;69.72;32.67;;;3.80;99.90;;;;;;5108732;28;20034;-47
2021/11/26 00:04:47;;;;;;;76.78;33.03;;;3.80;99.90;;;;;;5109049;28;20019;-48
2021/11/26 00:07:13;;;;;;;75.00;31.40;;;3.80;99.90;;;;;;5108855;28;20077;-46
2021/11/26 00:09:38;;;;;;;73.70;32.40;;;3.90;99.90;;;;;;5108835;28;20027;-48
2021/11/26 00:12:05;;;;;;;76.90;31.48;;;3.90;99.90;;;;;;5108344;28;20507;-48
2021/11/26 00:14:33;;;;;;;76.63;31.23;;;3.90;99.90;;;;;;5108838;28;20024;-46
2021/11/26 00:17:02;;;;;;;74.38;30.05;;;3.80;99.90;;;;;;5108993;28;20095;-46
2021/11/26 00:19:28;;;;;;;73.07;30.77;;;3.80;99.90;;;;;;5108763;28;20023;-47
2021/11/26 00:21:55;;;;;;;69.07;29.35;;;3.80;99.90;;;;;;5108023;28;20382;-48
2021/11/26 00:24:20;;;;;;;76.13;30.20;;;3.80;99.90;;;;;;5098638;28;20035;-47
2021/11/26 00:26:48;;;;;;;72.88;28.95;;;3.80;99.90;;;;;;5105085;28;20020;-49
2021/11/26 00:29:14;;;;;;;74.88;30.80;;;3.80;99.90;;;;;;5108768;28;20501;-47
2021/11/26 00:31:40;;;;;;;70.28;28.60;;;3.80;99.90;;;;;;5108040;28;20023;-46
2021/11/26 00:34:06;;;;;;;64.00;27.15;;;3.90;99.90;;;;;;5108619;28;20023;-47
2021/11/26 00:36:32;;;;;;;65.82;26.73;;;3.90;99.90;;;;;;5108969;28;20019;-48
2021/11/26 00:38:58;;;;;;;64.25;28.10;;;3.90;99.90;;;;;;5108478;28;20450;-49
2021/11/26 00:41:24;;;;;;;70.50;27.20;;;4.00;99.90;;;;;;5108756;28;20031;-46
2021/11/26 00:43:50;;;;;;;62.15;27.98;;;4.00;99.90;;;;;;5111966;28;20042;-47
2021/11/26 00:46:16;;;;;;;64.38;27.35;;;4.00;99.90;;;;;;5112484;28;20019;-47
2021/11/26 00:48:42;;;;;;;68.35;27.58;;;4.00;99.90;;;;;;5112463;27;20023;-48
2021/11/26 00:51:08;;;;;;;57.15;26.02;;;4.10;99.90;;;;;;5111607;28;20245;-47
2021/11/26 00:53:33;;;;;;;65.15;28.08;;;4.10;99.90;;;;;;5107555;28;20051;-48
2021/11/26 00:55:59;;;;;;;63.03;24.33;;;4.20;99.90;;;;;;5103776;28;20511;-47
2021/11/26 00:58:25;;;;;;;58.72;25.05;;;4.20;99.90;;;;;;5112180;28;20422;-49
2021/11/26 01:00:51;;;;;;;64.85;24.70;;;4.20;99.90;;;;;;5110124;28;20031;-50
2021/11/26 01:03:16;;;;;;;60.80;24.42;;;4.30;99.90;;;;;;5112083;28;20023;-48
2021/11/26 01:05:42;;;;;;;65.63;23.95;;;4.30;99.90;;;;;;5112000;28;20035;-46
2021/11/26 01:08:08;;;;;;;63.80;25.30;;;4.30;99.90;;;;;;5111994;28;20032;-47
2021/11/26 01:10:35;;;;;;;61.47;26.10;;;4.30;99.90;;;;;;5110036;28;20489;-46
2021/11/26 01:13:00;;;;;;;62.05;24.48;;;4.30;99.90;;;;;;5112003;28;20019;-47
2021/11/26 01:15:30;;;;;;;48.80;22.83;;;4.30;99.90;;;;;;5110461;28;20390;-45
2021/11/26 01:17:56;;;;;;;54.42;23.52;;;4.30;99.90;;;;;;5111717;28;20031;-46
2021/11/26 01:20:25;;;;;;;52.95;22.60;;;4.40;99.90;;;;;;5110894;28;20019;-46
2021/11/26 01:22:50;;;;;;;62.35;24.92;;;4.40;99.90;;;;;;5103045;28;20024;-48
2021/11/26 01:25:16;;;;;;;70.07;25.38;;;4.40;99.90;;;;;;5101835;28;20039;-49
2021/11/26 01:27:43;;;;;;;59.28;23.67;;;4.50;99.90;;;;;;5111642;28;20012;-46
2021/11/26 01:30:20;;;;;;;62.08;22.85;;;4.40;99.90;;;;;;5111153;28;20497;-47
2021/11/26 01:32:46;;;;;;;59.28;26.02;;;4.50;99.90;;;;;;5111527;28;20034;-46
2021/11/26 01:35:12;;;;;;;46.80;20.50;;;4.50;99.90;;;;;;5111490;28;20020;-47
2021/11/26 01:37:37;;;;;;;58.25;24.02;;;4.50;99.90;;;;;;5110133;28;20076;-47
2021/11/26 01:40:05;;;;;;;49.92;21.38;;;4.60;99.90;;;;;;5111000;28;20020;-46
2021/11/26 01:42:31;;;;;;;57.72;23.35;;;4.60;99.90;;;;;;5111203;28;20046;-46
2021/11/26 01:44:57;;;;;;;50.50;22.52;;;4.60;99.90;;;;;;5110194;28;20028;-46
2021/11/26 01:47:24;;;;;;;54.13;24.52;;;4.60;99.90;;;;;;5111232;28;20093;-47
2021/11/26 01:49:49;;;;;;;53.97;23.88;;;4.50;99.90;;;;;;5111460;28;20035;-49
2021/11/26 01:52:15;;;;;;;52.63;22.25;;;4.50;99.90;;;;;;5109867;28;20019;-46
2021/11/26 01:54:41;;;;;;;51.28;21.48;;;4.50;99.90;;;;;;5100177;28;20024;-47
2021/11/26 01:57:07;;;;;;;55.60;24.50;;;4.60;99.90;;;;;;5110100;28;20016;-46
2021/11/26 01:59:32;;;;;;;53.40;21.88;;;4.70;99.90;;;;;;5110840;28;20051;-47
2021/11/26 02:01:58;;;;;;;57.28;22.02;;;4.60;99.90;;;;;;5110220;28;20492;-47
2021/11/26 02:04:24;;;;;;;52.17;21.10;;;4.60;99.90;;;;;;5110885;28;20028;-46
2021/11/26 02:06:50;;;;;;;46.00;20.52;;;4.70;99.90;;;;;;5111166;28;20026;-45
2021/11/26 02:09:15;;;;;;;47.28;21.63;;;4.70;99.90;;;;;;5110543;28;20427;-47
2021/11/26 02:11:41;;;;;;;51.10;19.25;;;4.60;99.90;;;;;;5109839;28;20139;-46
2021/11/26 02:14:07;;;;;;;48.33;21.05;;;4.70;99.90;;;;;;5110749;28;20123;-48
2021/11/26 02:16:48;;;;;;;44.42;19.83;;;4.70;99.90;;;;;;5110501;28;20087;-48
2021/11/26 02:19:14;;;;;;;50.78;19.05;;;4.70;99.90;;;;;;5110613;28;20027;-46
2021/11/26 02:21:41;;;;;;;45.55;21.10;;;4.70;99.90;;;;;;5109916;28;20129;-46
2021/11/26 02:24:08;;;;;;;47.95;19.02;;;4.60;99.90;;;;;;5104372;28;20567;-45
2021/11/26 02:26:39;;;;;;;55.80;21.02;;;4.70;99.90;;;;;;5104757;28;20035;-46
2021/11/26 02:29:05;;;;;;;50.13;19.20;;;4.70;99.90;;;;;;5109116;28;20031;-46
2021/11/26 02:31:31;;;;;;;51.33;19.15;;;4.60;99.90;;;;;;5109999;28;20019;-49
2021/11/26 02:33:57;;;;;;;39.95;17.65;;;4.60;99.90;;;;;;5110678;28;20053;-47
2021/11/26 02:36:23;;;;;;;43.67;18.65;;;4.70;99.90;;;;;;5110432;28;20027;-47
2021/11/26 02:38:48;;;;;;;47.53;19.27;;;4.60;99.90;;;;;;5108887;28;20024;-46
2021/11/26 02:41:14;;;;;;;53.10;18.67;;;4.60;99.90;;;;;;5109994;28;20020;-46
2021/11/26 02:43:40;;;;;;;48.80;18.35;;;4.60;99.90;;;;;;5108693;28;20051;-46
2021/11/26 02:46:05;;;;;;;51.00;18.25;;;4.70;99.90;;;;;;5110085;28;20034;-46
2021/11/26 02:48:31;;;;;;;39.20;17.67;;;4.60;99.90;;;;;;5110044;28;20043;-45
2021/11/26 02:50:57;;;;;;;46.92;17.73;;;4.70;99.90;;;;;;5109277;28;20123;-49
2021/11/26 02:53:22;;;;;;;47.70;17.13;;;4.70;99.90;;;;;;5106449;28;20034;-46
2021/11/26 02:55:49;;;;;;;48.08;17.58;;;4.70;99.90;;;;;;5101388;28;20261;-46
2021/11/26 02:58:16;;;;;;;39.60;17.00;;;4.70;99.90;;;;;;5109897;28;20015;-46
2021/11/26 03:00:45;;;;;;;45.60;16.25;;;4.80;99.90;;;;;;5108125;28;20481;-46
2021/11/26 03:03:11;;;;;;;44.63;17.58;;;4.70;99.90;;;;;;5110053;28;20035;-46
2021/11/26 03:05:37;;;;;;;47.88;17.67;;;4.70;99.90;;;;;;5109177;28;20032;-48
2021/11/26 03:08:03;;;;;;;36.28;16.60;;;4.80;99.90;;;;;;5109908;28;20031;-47
2021/11/26 03:10:29;;;;;;;40.85;17.15;;;4.80;99.90;;;;;;5109182;28;20081;-47
2021/11/26 03:13:01;;;;;;;48.45;17.13;;;4.80;99.90;;;;;;5109555;28;20085;-46
2021/11/26 03:15:28;;;;;;;42.50;16.58;;;4.80;99.90;;;;;;5109595;28;20080;-45
2021/11/26 03:17:55;;;;;;;51.03;17.80;;;4.80;99.90;;;;;;5109578;27;20088;-47
2021/11/26 03:20:21;;;;;;;40.85;16.45;;;4.80;99.90;;;;;;5108896;28;20028;-47
2021/11/26 03:22:47;;;;;;;41.33;17.33;;;4.90;99.90;;;;;;5104282;28;20081;-48
2021/11/26 03:25:13;;;;;;;47.35;16.70;;;4.80;99.90;;;;;;5100456;28;20031;-49
2021/11/26 03:27:40;;;;;;;38.33;16.35;;;4.80;99.90;;;;;;5108136;28;20026;-47
2021/11/26 03:30:06;;;;;;;43.50;15.65;;;4.80;99.90;;;;;;5109532;28;20055;-47
2021/11/26 03:32:32;;;;;;;37.58;15.40;;;4.80;99.90;;;;;;5108886;28;20030;-47
2021/11/26 03:34:57;;;;;;;38.22;14.88;;;4.80;99.90;;;;;;5109406;28;20019;-50
2021/11/26 03:37:23;;;;;;;40.78;16.55;;;4.90;99.90;;;;;;5109367;28;20385;-47
2021/11/26 03:39:49;;;;;;;39.65;16.67;;;4.90;99.90;;;;;;5109163;28;20024;-47
2021/11/26 03:42:14;;;;;;;42.03;15.98;;;4.80;99.90;;;;;;5108608;28;20341;-46
2021/11/26 03:44:40;;;;;;;51.38;17.73;;;4.90;99.90;;;;;;5109313;28;20031;-47
2021/11/26 03:47:06;;;;;;;41.28;15.23;;;4.90;99.90;;;;;;5109183;28;20038;-47
2021/11/26 03:49:32;;;;;;;40.72;16.42;;;4.90;99.90;;;;;;5109310;28;20054;-47
2021/11/26 03:51:57;;;;;;;44.55;16.65;;;4.90;99.90;;;;;;5108294;28;20035;-47
2021/11/26 03:54:23;;;;;;;46.85;17.48;;;4.90;99.90;;;;;;5102118;28;20012;-47
2021/11/26 03:56:48;;;;;;;43.47;17.17;;;4.90;99.90;;;;;;5089099;28;20028;-48
2021/11/26 03:59:14;;;;;;;44.58;18.27;;;4.90;99.90;;;;;;5088277;28;20474;-50
2021/11/26 04:01:40;;;;;;;39.83;17.08;;;4.90;99.90;;;;;;5086301;28;20089;-47
2021/11/26 04:04:05;;;;;;;45.65;17.05;;;5.00;99.90;;;;;;5088668;28;20035;-47
2021/11/26 04:06:31;;;;;;;42.30;17.92;;;5.00;99.90;;;;;;5087129;28;20039;-47
2021/11/26 04:08:57;;;;;;;48.85;17.05;;;4.90;99.90;;;;;;5088453;28;20032;-50
2021/11/26 04:11:23;;;;;;;47.80;18.42;;;4.80;99.90;;;;;;5087753;28;20024;-49
2021/11/26 04:13:48;;;;;;;39.45;17.75;;;4.80;99.90;;;;;;5087098;28;20024;-48
2021/11/26 04:16:14;;;;;;;40.90;16.60;;;4.70;99.90;;;;;;5090854;28;20031;-48
2021/11/26 04:18:41;;;;;;;47.78;17.52;;;4.70;99.90;;;;;;5092551;28;20024;-48
2021/11/26 04:21:07;;;;;;;47.97;17.77;;;4.70;99.90;;;;;;5091928;28;20047;-49
2021/11/26 04:23:33;;;;;;;47.50;19.67;;;4.80;99.90;;;;;;5096850;28;20482;-49
2021/11/26 04:25:59;;;;;;;44.67;17.27;;;4.70;99.90;;;;;;5104662;28;20028;-48
2021/11/26 04:28:25;;;;;;;42.85;17.83;;;4.70;99.90;;;;;;5113133;28;20461;-47
2021/11/26 04:30:51;;;;;;;50.20;17.80;;;4.70;99.90;;;;;;5097494;28;20300;-47
2021/11/26 04:33:17;;;;;;;51.88;18.25;;;4.70;99.90;;;;;;5092575;28;20608;-48
2021/11/26 04:35:47;;;;;;;47.92;18.13;;;4.70;99.90;;;;;;5092741;28;20107;-48
2021/11/26 04:38:14;;;;;;;44.15;17.23;;;4.70;99.90;;;;;;5092302;28;20427;-51
2021/11/26 04:40:40;;;;;;;38.92;16.95;;;4.70;99.90;;;;;;5091917;28;20178;-49
2021/11/26 04:43:05;;;;;;;42.70;17.55;;;4.70;99.90;;;;;;5092450;28;20529;-48
2021/11/26 04:45:31;;;;;;;39.17;16.60;;;4.70;99.90;;;;;;5092575;28;20112;-48
2021/11/26 04:47:56;;;;;;;42.25;18.33;;;4.60;99.90;;;;;;5092227;28;20119;-48
2021/11/26 04:50:22;;;;;;;45.22;17.60;;;4.60;99.90;;;;;;5091446;28;20035;-49
2021/11/26 04:52:48;;;;;;;44.90;18.40;;;4.70;99.90;;;;;;5090610;28;20312;-50
2021/11/26 04:55:14;;;;;;;52.08;18.55;;;4.70;99.90;;;;;;5102084;28;20115;-48
2021/11/26 04:57:40;;;;;;;51.25;18.88;;;4.60;99.90;;;;;;5112318;27;20016;-47
2021/11/26 05:00:07;;;;;;;47.03;18.85;;;4.60;99.90;;;;;;5112179;28;20015;-48
2021/11/26 05:02:33;;;;;;;50.72;17.67;;;4.60;99.90;;;;;;5111774;28;20051;-49
2021/11/26 05:04:58;;;;;;;51.95;19.33;;;4.60;99.90;;;;;;5112124;28;20024;-48
2021/11/26 05:07:24;;;;;;;44.28;18.77;;;4.60;99.90;;;;;;5103247;28;20040;-46
2021/11/26 05:09:52;;;;;;;53.33;17.98;;;4.60;99.90;;;;;;5091018;28;20058;-47
2021/11/26 05:12:19;;;;;;;47.85;17.33;;;4.60;99.90;;;;;;5090575;28;20466;-49
2021/11/26 05:14:44;;;;;;;47.58;17.77;;;4.60;99.90;;;;;;5091179;28;20028;-47
2021/11/26 05:17:10;;;;;;;55.65;18.35;;;4.60;99.90;;;;;;5091406;28;20008;-47
2021/11/26 05:19:35;;;;;;;50.72;18.98;;;4.50;99.90;;;;;;5091206;28;20024;-46
2021/11/26 05:22:01;;;;;;;44.97;17.17;;;4.50;99.90;;;;;;5087679;28;20100;-47
2021/11/26 05:24:27;;;;;;;53.65;19.05;;;4.50;99.90;;;;;;5095704;28;20028;-48
2021/11/26 05:26:52;;;;;;;46.05;18.35;;;4.40;99.90;;;;;;5093176;28;20397;-47
2021/11/26 05:29:18;;;;;;;56.78;18.33;;;4.40;99.90;;;;;;5091459;28;20055;-47
2021/11/26 05:31:44;;;;;;;49.05;17.17;;;4.50;99.90;;;;;;5090176;28;20035;-49
2021/11/26 05:34:09;;;;;;;44.40;17.88;;;4.50;99.90;;;;;;5090707;28;20194;-47
2021/11/26 05:36:36;;;;;;;41.15;17.08;;;4.50;99.90;;;;;;5091091;28;20024;-46
2021/11/26 05:39:05;;;;;;;38.83;16.98;;;4.50;99.90;;;;;;5090818;28;20017;-48
2021/11/26 05:41:31;;;;;;;52.10;16.88;;;4.50;99.90;;;;;;5090596;28;20022;-48
2021/11/26 05:43:57;;;;;;;44.38;16.05;;;4.50;99.90;;;;;;5089450;28;20036;-50
2021/11/26 05:46:23;;;;;;;44.42;16.73;;;4.50;99.90;;;;;;5090876;28;20055;-48
2021/11/26 05:48:48;;;;;;;48.33;16.42;;;4.50;99.90;;;;;;5091180;28;20040;-47
2021/11/26 05:51:14;;;;;;;43.00;17.50;;;4.50;99.90;;;;;;5090263;28;20473;-48
2021/11/26 05:53:40;;;;;;;43.30;16.52;;;4.40;99.90;;;;;;5090586;28;20024;-47
2021/11/26 05:56:05;;;;;;;47.67;16.95;;;4.50;99.90;;;;;;5101301;28;20488;-48
2021/11/26 05:58:32;;;;;;;43.85;17.88;;;4.50;99.90;;;;;;5111040;28;20536;-50
2021/11/26 06:00:59;;;;;;;45.55;17.33;;;4.60;99.90;;;;;;5110224;28;20054;-49
2021/11/26 06:03:25;;;;;;;46.83;17.92;;;4.50;99.90;;;;;;5110810;28;20504;-48
2021/11/26 06:05:51;;;;;;;45.63;18.55;;;4.50;99.90;;;;;;5109376;28;20023;-49
2021/11/26 06:08:17;;;;;;;45.22;17.65;;;4.50;99.90;;;;;;5110270;28;20028;-48
2021/11/26 06:10:42;;;;;;;50.53;17.27;;;4.50;99.90;;;;;;5089553;28;20107;-48
2021/11/26 06:13:09;;;;;;;57.25;19.15;;;4.40;99.90;;;;;;5090314;28;20520;-48
2021/11/26 06:15:34;;;;;;;44.75;17.48;;;4.40;99.90;;;;;;5093954;28;20254;-48
2021/11/26 06:18:00;;;;;;;46.63;17.27;;;4.50;99.90;;;;;;5091982;28;20020;-51
2021/11/26 06:20:27;;;;;;;38.88;15.68;;;4.40;99.90;;;;;;5088057;28;20035;-48
2021/11/26 06:22:53;;;;;;;44.75;17.23;;;4.50;99.90;;;;;;5089484;28;20255;-47
2021/11/26 06:25:21;;;;;;;50.30;17.10;;;4.40;99.90;;;;;;5089256;28;20493;-50
2021/11/26 06:27:49;;;;;;;49.40;18.38;;;4.40;99.90;;;;;;5105043;28;20027;-48
2021/11/26 06:30:17;;;;;;;45.03;18.17;;;4.40;99.90;;;;;;5108466;28;20031;-47
2021/11/26 06:32:43;;;;;;;43.45;17.77;;;4.40;99.90;;;;;;5109127;28;20027;-48
2021/11/26 06:35:11;;;;;;;47.40;17.52;;;4.30;99.90;;;;;;5108698;28;20072;-47
2021/11/26 06:37:37;;;;;;;37.40;16.73;;;4.40;99.90;;;;;;5108589;28;20127;-49
2021/11/26 06:40:04;;;;;;;47.45;18.27;;;4.30;99.90;;;;;;5109194;28;20053;-49
2021/11/26 06:42:30;;;;;;;51.97;17.15;;;4.40;99.90;;;;;;5109591;28;20499;-48
2021/11/26 06:44:56;;;;;;;45.92;15.43;;;4.40;99.90;;;;;;5109922;28;20031;-50
2021/11/26 06:47:21;;;;;;;36.80;15.90;;;4.40;99.90;;;;;;5110213;28;20397;-50
2021/11/26 06:49:48;;;;;;;43.55;15.98;;;4.40;99.90;;;;;;5109631;28;20024;-48
2021/11/26 06:52:15;;;;;;;51.17;17.35;;;4.40;99.90;;;;;;5108894;28;20026;-47
2021/11/26 06:54:41;;;;;;;53.17;16.77;;;4.30;99.90;;;;;;5101483;28;20023;-48
2021/11/26 06:57:07;;;;;;;38.97;15.70;;;4.30;99.90;;;;;;5101638;28;20027;-48
2021/11/26 06:59:33;;;;;;;42.20;15.25;;;4.40;99.90;;;;;;5109904;27;20028;-47
2021/11/26 07:01:58;;;;;;;44.10;16.17;;;4.40;99.90;;;;;;5109035;28;20102;-50
2021/11/26 07:04:24;;;;;;;38.08;14.77;;;4.40;99.90;;;;;;5109884;28;20541;-50
2021/11/26 07:06:50;;;;;;;46.13;17.40;;;4.30;99.90;;;;;;5109899;28;20024;-48
2021/11/26 07:09:16;;;;;;;38.42;15.27;;;4.30;99.90;;;;;;5108318;28;20399;-49
2021/11/26 07:11:42;;;;;;;47.33;18.55;;;4.30;99.90;;;;;;5109174;28;20028;-48
2021/11/26 07:14:07;;;;;;;49.50;16.58;;;4.30;99.90;;;;;;5109621;27;20592;-46
2021/11/26 07:16:33;;;;;;;49.30;18.35;;;4.20;99.90;;;;;;5109431;28;20062;-46
2021/11/26 07:18:59;;;;;;;44.65;18.50;;;4.20;99.90;;;;;;5109626;28;20096;-48
2021/11/26 07:21:25;;;;;;;43.22;17.02;;;4.20;99.90;;;;;;5108919;28;20015;-48
2021/11/26 07:23:51;;;;;;;49.45;17.75;;;4.20;99.90;;;;;;5093444;28;20373;-49
2021/11/26 07:26:17;;;;;;;42.80;15.25;;;4.20;99.90;;;;;;5100617;28;20028;-49
2021/11/26 07:28:43;;;;;;;41.35;15.40;;;4.20;99.90;;;;;;5109408;28;20028;-50
2021/11/26 07:31:09;;;;;;;44.20;17.58;;;4.10;99.90;;;;;;5108855;28;20473;-48
2021/11/26 07:33:35;;;;;;;38.80;15.93;;;4.10;99.90;;;;;;5109438;28;20170;-50
2021/11/26 07:36:00;;;;;;;43.30;14.48;;;4.10;99.90;;;;;;5108002;28;20024;-50
2021/11/26 07:38:26;;;;;;;39.53;14.15;;;4.10;99.90;;;;;;5109543;28;20103;-47
2021/11/26 07:40:53;;;;;;;55.38;17.10;;;4.10;99.90;;;;;;5108729;28;20031;-48
2021/11/26 07:43:20;;;;;;;42.78;15.75;;;4.00;99.90;;;;;;5108993;28;20512;-48
2021/11/26 07:45:46;;;;;;;36.35;15.43;;;4.00;99.90;;;;;;5109158;28;20023;-48
2021/11/26 07:48:12;;;;;;;44.80;15.65;;;4.10;99.90;;;;;;5109197;28;20031;-49
2021/11/26 07:50:38;;;;;;;38.97;16.00;;;4.10;99.90;;;;;;5108140;28;20091;-47
2021/11/26 07:53:04;;;;;;;38.28;14.10;;;4.10;99.90;;;;;;5108473;28;20028;-49
2021/11/26 07:55:30;;;;;;;38.03;15.55;;;4.10;99.90;;;;;;5096991;28;20024;-48
2021/11/26 07:57:55;;;;;;;38.03;16.35;;;4.10;99.90;;;;;;5106377;28;20034;-48
2021/11/26 08:00:21;;;;;;;33.45;13.32;;;4.10;99.90;;;;;;5108320;28;20102;-48
2021/11/26 08:02:47;;;;;;;39.75;14.45;;;4.20;99.90;;;;;;5109129;28;20023;-50
2021/11/26 08:05:14;;;;;;;33.42;13.25;;;4.20;99.90;;;;;;5109111;28;20204;-49
2021/11/26 08:07:40;;;;;;;41.83;13.95;;;4.20;99.90;;;;;;5109069;28;20098;-49
2021/11/26 08:10:10;;;;;;;39.55;13.48;;;4.30;99.90;;;;;;5108746;28;20103;-48
2021/11/26 08:12:37;;;;;;;36.88;14.07;;;4.30;99.90;;;;;;5108362;28;20032;-48
2021/11/26 08:15:06;;;;;;;32.03;12.95;;;4.40;99.90;;;;;;5108891;28;20024;-49
2021/11/26 08:17:31;;;;;;;34.83;12.55;;;4.40;99.90;;;;;;5108859;28;20015;-48
2021/11/26 08:19:57;;;;;;;32.28;12.32;;;4.50;99.90;;;;;;5108830;28;20370;-48
2021/11/26 08:22:23;;;;;;;47.33;14.43;;;4.50;99.90;;;;;;5106692;28;20028;-48
2021/11/26 08:24:48;;;;;;;34.88;12.38;;;4.60;99.90;;;;;;5100965;28;20023;-47
2021/11/26 08:27:14;;;;;;;27.15;11.23;;;4.60;99.90;;;;;;5090325;28;20027;-48
2021/11/26 08:29:40;;;;;;;39.13;11.98;;;4.70;99.90;;;;;;5108692;28;20080;-50
2021/11/26 08:32:05;;;;;;;30.45;13.00;;;4.70;99.90;;;;;;5108142;28;20085;-49
2021/11/26 08:34:31;;;;;;;30.98;11.77;;;4.80;99.90;;;;;;5108700;28;20099;-49
2021/11/26 08:36:57;;;;;;;34.40;11.15;;;4.70;99.90;;;;;;5108809;28;20127;-49
2021/11/26 08:39:23;;;;;;;33.60;11.73;;;4.80;99.90;;;;;;5107543;28;20043;-48
2021/11/26 08:41:48;;;;;;;30.45;11.13;;;4.80;99.90;;;;;;5107736;28;20027;-48
2021/11/26 08:44:14;;;;;;;22.75;9.35;;;4.80;99.90;;;;;;5107062;28;20058;-49
2021/11/26 08:46:40;;;;;;;26.70;10.32;;;4.80;99.90;;;;;;5108574;28;20062;-49
2021/11/26 08:49:07;;;;;;;22.52;9.57;;;4.80;99.90;;;;;;5108648;28;20034;-48
2021/11/26 08:51:39;;;;;;;25.75;10.57;;;4.90;99.90;;;;;;5107870;28;20221;-47
2021/11/26 08:54:05;;;;;;;21.08;8.98;;;4.80;99.90;;;;;;5101748;28;20099;-46
2021/11/26 08:56:31;;;;;;;22.38;8.77;;;4.90;99.90;;;;;;5098244;28;20020;-47
2021/11/26 08:58:58;;;;;;;25.20;9.15;;;5.00;99.90;;;;;;5107422;28;20592;-47
2021/11/26 09:01:24;;;;;;;22.67;9.90;;;5.00;99.90;;;;;;5105464;28;20125;-45
2021/11/26 09:03:49;;;;;;;24.70;9.32;;;5.10;99.90;;;;;;5110964;28;20033;-47
2021/11/26 09:06:20;;;;;;;23.80;9.52;;;5.00;99.90;;;;;;5102397;28;20069;-46
2021/11/26 09:08:46;;;;;;;24.02;8.70;;;5.00;99.90;;;;;;5087267;28;20497;-49
2021/11/26 09:11:12;;;;;;;25.17;9.18;;;5.00;99.90;;;;;;5088014;28;20036;-48
2021/11/26 09:13:38;;;;;;;20.27;8.63;;;5.00;99.90;;;;;;5084558;28;20020;-46
2021/11/26 09:16:04;;;;;;;21.98;9.35;;;5.00;99.90;;;;;;5068529;28;20032;-46
2021/11/26 09:18:30;;;;;;;20.58;8.75;;;5.00;99.90;;;;;;5069675;28;20021;-46
2021/11/26 09:20:55;;;;;;;27.65;9.93;;;5.10;99.90;;;;;;5075370;28;20023;-46
2021/11/26 09:23:22;;;;;;;27.35;10.50;;;5.10;99.90;;;;;;5085351;28;20064;-46
2021/11/26 09:25:48;;;;;;;25.77;8.30;;;5.10;99.90;;;;;;5085878;28;20012;-48
2021/11/26 09:28:15;;;;;;;26.02;9.43;;;5.30;99.90;;;;;;5069839;28;20070;-47
2021/11/26 09:30:41;;;;;;;19.73;9.20;;;5.30;99.90;;;;;;5068693;28;20052;-45
2021/11/26 09:33:07;;;;;;;28.58;9.25;;;5.40;99.90;;;;;;5070046;28;20013;-48
2021/11/26 09:35:34;;;;;;;22.00;9.65;;;5.50;99.90;;;;;;5069392;28;20028;-46
2021/11/26 09:38:00;;;;;;;23.30;10.00;;;5.60;99.90;;;;;;5067978;28;20296;-46
2021/11/26 09:40:27;;;;;;;19.90;10.15;;;5.60;99.90;;;;;;5068730;28;20021;-47
2021/11/26 09:42:53;;;;;;;26.88;10.50;;;5.70;99.90;;;;;;5069572;28;20489;-50
2021/11/26 09:45:22;;;;;;;22.92;10.40;;;5.90;99.90;;;;;;5069235;28;20294;-49
2021/11/26 09:47:49;;;;;;;23.67;10.02;;;5.90;99.90;;;;;;5069691;28;20543;-47
2021/11/26 09:50:16;;;;;;;24.63;9.88;;;6.00;99.90;;;;;;5069247;28;20446;-45
2021/11/26 09:52:43;;;;;;;22.95;10.13;;;6.00;99.90;;;;;;5069134;28;20148;-49
2021/11/26 09:55:11;;;;;;;23.45;10.50;;;6.10;99.90;;;;;;5094585;28;20046;-47
2021/11/26 09:57:39;;;;;;;27.50;10.10;;;6.10;99.90;;;;;;5105094;28;20472;-46
2021/11/26 10:00:07;;;;;;;22.92;10.18;;;6.00;99.90;;;;;;5109330;28;20106;-50
2021/11/26 10:02:33;;;;;;;26.88;10.05;;;6.00;99.90;;;;;;5109174;28;20032;-47
2021/11/26 10:05:09;;;;;;;20.48;10.45;;;5.90;99.90;;;;;;5109770;28;20029;-49
2021/11/26 10:07:45;;;;;;;18.55;9.55;;;5.90;99.90;;;;;;5108898;28;20054;-47
2021/11/26 10:10:12;;;;;;;23.77;10.88;;;5.90;99.90;;;;;;5108668;28;20515;-47
2021/11/26 10:12:39;;;;;;;26.33;11.10;;;5.90;99.90;;;;;;5109593;28;20500;-46
2021/11/26 10:15:06;;;;;;;24.40;10.23;;;5.90;99.90;;;;;;5109677;28;20037;-48
2021/11/26 10:17:32;;;;;;;18.95;9.13;;;5.90;99.90;;;;;;5109215;28;20023;-45
2021/11/26 10:20:01;;;;;;;20.27;9.27;;;6.00;99.90;;;;;;5109314;28;20031;-48
2021/11/26 10:22:33;;;;;;;21.30;9.25;;;6.00;99.90;;;;;;5108781;28;20034;-49
2021/11/26 10:25:09;;;;;;;20.15;9.15;;;6.10;99.90;;;;;;5100643;28;20230;-48
2021/11/26 10:27:55;;;;;;;22.45;9.15;;;6.10;99.90;;;;;;5104286;28;20027;-47
2021/11/26 10:30:29;;;;;;;19.48;9.43;;;6.10;99.90;;;;;;5108080;28;20032;-48
2021/11/26 10:32:58;;;;;;;22.83;11.02;;;6.30;99.90;;;;;;5109422;28;20020;-48
2021/11/26 10:35:26;;;;;;;19.20;9.02;;;6.20;99.90;;;;;;5109399;28;20020;-47
2021/11/26 10:38:05;;;;;;;23.55;10.48;;;6.20;99.90;;;;;;5108446;28;20023;-46
2021/11/26 10:40:34;;;;;;;19.98;9.88;;;6.20;99.90;;;;;;5108518;28;20019;-47
2021/11/26 10:43:05;;;;;;;20.35;9.60;;;6.10;99.90;;;;;;5108722;28;20557;-46
2021/11/26 10:46:26;;;;;;;24.85;10.38;;;6.10;99.90;;;;;;5109036;28;20023;-46
2021/11/26 10:59:41;;;;;;;21.23;9.98;;;6.00;99.90;;;;;;5108549;28;20026;-48
2021/11/26 11:02:07;;;;;;;33.25;11.85;;;6.10;99.90;;;;;;5108137;28;20193;-46
2021/11/26 11:04:35;;;;;;;20.90;10.77;;;6.10;99.90;;;;;;5107414;28;20437;-46
2021/11/26 11:07:09;;;;;;;25.13;9.95;;;6.10;99.90;;;;;;5108362;28;20027;-47
2021/11/26 11:09:44;;;;;;;25.45;10.63;;;6.00;99.90;;;;;;5107946;28;20028;-46
2021/11/26 11:12:11;;;;;;;23.45;9.70;;;6.10;99.90;;;;;;5107665;28;20024;-48
2021/11/26 11:14:37;;;;;;;22.30;10.77;;;6.10;99.90;;;;;;5108026;28;20061;-47
2021/11/26 11:17:03;;;;;;;26.50;12.10;;;6.00;99.90;;;;;;5108459;28;20045;-46
2021/11/26 11:19:29;;;;;;;28.67;11.50;;;6.00;99.90;;;;;;5108247;28;20015;-46
2021/11/26 11:21:57;;;;;;;25.80;11.57;;;5.90;99.90;;;;;;5107292;28;20049;-48
2021/11/26 11:24:26;;;;;;;31.85;12.90;;;5.90;99.90;;;;;;5095201;28;20396;-46
2021/11/26 11:26:52;;;;;;;25.88;12.80;;;5.90;99.90;;;;;;5099254;28;20109;-47
2021/11/26 11:29:29;;;;;;;27.55;12.40;;;5.80;99.90;;;;;;5093530;27;20024;-48
2021/11/26 11:31:58;;;;;;;26.13;12.50;;;5.70;99.90;;;;;;5086797;28;20051;-46
2021/11/26 11:34:27;;;;;;;32.30;11.80;;;5.60;99.90;;;;;;5087677;28;20024;-48
2021/11/26 11:36:55;;;;;;;35.45;12.45;;;5.50;99.90;;;;;;5087410;28;20024;-49
2021/11/26 11:39:21;;;;;;;31.90;12.90;;;5.40;99.90;;;;;;5086358;28;20024;-50
2021/11/26 11:41:58;;;;;;;27.00;13.80;;;5.40;99.90;;;;;;5087002;28;20047;-46
2021/11/26 11:44:35;;;;;;;26.25;12.70;;;5.30;99.90;;;;;;5086950;28;20061;-49
2021/11/26 11:47:16;;;;;;;27.15;12.40;;;5.20;99.90;;;;;;5087554;28;20036;-47
2021/11/26 11:49:42;;;;;;;28.90;12.90;;;5.20;99.90;;;;;;5087940;28;20106;-46
2021/11/26 11:52:11;;;;;;;29.40;13.38;;;5.20;99.90;;;;;;5086450;28;20020;-46
2021/11/26 11:54:38;;;;;;;31.25;13.07;;;5.10;99.90;;;;;;5093965;28;20416;-48
2021/11/26 11:57:05;;;;;;;28.48;12.45;;;5.10;99.90;;;;;;5099736;28;20445;-49
2021/11/26 11:59:37;;;;;;;28.10;12.48;;;5.00;99.90;;;;;;5106050;28;20114;-46
2021/11/26 12:02:06;;;;;;;24.70;12.40;;;5.00;99.90;;;;;;5106554;28;20028;-48
2021/11/26 12:04:41;;;;;;;35.45;12.50;;;5.00;99.90;;;;;;5107459;28;20023;-49
2021/11/26 12:07:07;;;;;;;31.33;13.95;;;5.00;99.90;;;;;;5107804;28;20020;-48
2021/11/26 12:09:34;;;;;;;28.52;13.88;;;4.90;99.90;;;;;;5107157;28;20031;-49
2021/11/26 12:12:12;;;;;;;31.45;12.15;;;4.90;99.90;;;;;;5105270;28;20120;-48
2021/11/26 12:14:54;;;;;;;32.60;13.05;;;4.90;99.90;;;;;;5107272;28;20107;-46
2021/11/26 12:17:31;;;;;;;28.20;13.00;;;4.80;99.90;;;;;;5107712;28;20030;-48
2021/11/26 12:19:59;;;;;;;31.50;12.95;;;4.70;99.90;;;;;;5107345;28;20085;-46
2021/11/26 12:22:39;;;;;;;28.55;11.88;;;4.70;99.90;;;;;;5106996;28;20477;-47
2021/11/26 12:25:28;;;;;;;28.48;12.60;;;4.70;99.90;;;;;;5099334;28;20277;-49
2021/11/26 12:28:17;;;;;;;34.60;14.40;;;4.70;99.90;;;;;;5105821;28;20214;-46
2021/11/26 12:30:43;;;;;;;23.23;11.88;;;4.70;99.90;;;;;;5106854;28;20062;-47
2021/11/26 12:33:39;;;;;;;24.95;12.95;;;4.70;99.90;;;;;;5105649;28;20059;-46
2021/11/26 12:36:14;;;;;;;24.65;10.85;;;4.70;99.90;;;;;;5097189;28;20055;-45
2021/11/26 12:38:47;;;;;;;23.85;11.55;;;4.70;99.90;;;;;;5111335;28;20022;-47
2021/11/26 12:41:26;;;;;;;21.88;11.85;;;4.70;99.90;;;;;;5110305;28;20180;-45
2021/11/26 12:43:52;;;;;;;22.08;10.77;;;4.70;99.90;;;;;;5109233;28;20039;-45
2021/11/26 12:46:38;;;;;;;20.38;10.43;;;4.80;99.90;;;;;;5111101;28;20020;-47
2021/11/26 12:52:02;;;;;;;23.27;10.93;;;4.50;99.90;;;;;;5094695;28;20024;-45
2021/11/26 12:54:42;;;;;;;27.40;11.38;;;4.50;99.90;;;;;;5089844;28;20102;-45